LFMU/BZR METAR and TAF weather

Enter ICAO airport designator
Station Type Date Time Source
LFMU METAR 2022/11/30 17:00 UTC NOAA

LFMU 301700Z AUTO 26005KT CAVOK 08/04 Q1016 NOSIG


Station Type Date Time Source
LFMU Decoded METAR 2022/11/30 17:00 UTC NOAA

Beziers / Vias, France (LFMU) 43-19N 003-21E
Nov 30, 2022 - 12:00 PM EST / 2022.11.30 1700 UTC
Wind: from the W (260 degrees) at 6 MPH (5 KT):0
Visibility: greater than 7 mile(s):0
Temperature: 46 F (8 C)
Dew Point: 39 F (4 C)
Relative Humidity: 75%
Pressure (altimeter): 30.00 in. Hg (1016 hPa)
ob: LFMU 301700Z AUTO 26005KT CAVOK 08/04 Q1016 NOSIG
cycle: 17

Station Type Date Time Source
LFMU TAF 2022/11/30 15:24 UTC NOAA

TAF TAF LFMU 301400Z 3015/0115 27008KT CAVOK
BECMG 0103/0105 BKN040

Example: see airport list